• Join FlightAware (Why Join?)
  • Login
  • US Flag 
11:31PM EDT


 

Airport Tracker/Info


-or-


 

Live Flight TrackerFlight Track Log ✈ SWA641 ✈ 30-Apr-2013 ✈ KMSP - KSTL

Flight Track Log - Related Links

Times and Time Zones

All times are in EDT time to prevent confusion due to time zone crossing. See the SWA641 flight status page for this flight to view local times or setup timezone preferences in your user account.

Time Position Orientation Groundspeed Altitude Reporting Facility
EDT Latitude Longitude Course Direction KTS MPH feet Rate Location/Type
10:42AM 44.7603 -93.1944 164° South 265 305 6,100  Level Minneapolis Center
10:43AM 44.6869 -93.1533 158° South 271 312 11,200 4,140 Climbing Minneapolis Center
10:44AM 44.6036 -93.1083 159° South 322 371 14,700 3,540 Climbing Minneapolis Center
10:45AM 44.5161 -93.0614 159° South 337 388 18,500 3,780 Climbing Minneapolis Center
10:46AM 44.4000 -92.9983 159° South 372 428 22,500 3,360 Climbing Minneapolis Center
10:47AM 44.2992 -92.9447 159° South 385 443 25,400 2,700 Climbing Minneapolis Center
10:48AM 44.1958 -92.8819 156° South 404 465 28,100 2,340 Climbing Minneapolis Center
10:49AM 44.0914 -92.8086 153° Southeast 420 483 30,200 1,980 Climbing Minneapolis Center
10:50AM 43.9814 -92.7333 154° Southeast 437 503 32,200 2,040 Climbing Minneapolis Center
10:51AM 43.8686 -92.6567 154° Southeast 449 517 34,500 2,100 Climbing Minneapolis Center
10:52AM 43.7664 -92.5939 156° South 445 512 36,500 1,860 Climbing Minneapolis Center
10:53AM 43.6247 -92.5722 174° South 431 496 38,400 1,680 Climbing Minneapolis Center
10:54AM 43.5047 -92.5506 173° South 437 503 40,000 1,260 Climbing Minneapolis Center
10:55AM 43.3872 -92.5333 174° South 431 496 41,000 480 Climbing Minneapolis Center
10:56AM 43.2722 -92.5144 173° South 423 487 41,000  Level Minneapolis Center
10:57AM 43.1331 -92.4931 174° South 422 486 41,000  Level Minneapolis Center
10:58AM 43.0178 -92.4747 173° South 423 487 41,000  Level Minneapolis Center
10:59AM 42.9031 -92.4567 173° South 421 484 41,000  Level Minneapolis Center
11:00AM 42.7892 -92.4375 173° South 419 482 41,000  Level Minneapolis Center
11:02AM 42.6733 -92.4181 173° South 423 487 41,000  Level Minneapolis Center
11:03AM 42.5131 -92.3914 173° South 422 486 41,000  Level Minneapolis Center
11:04AM 42.3978 -92.3633 170° South 425 489 41,000 -60 Level Minneapolis Center
11:05AM 42.2836 -92.3386 171° South 422 486 40,900 -540 Descending Minneapolis Center
11:06AM 42.1675 -92.3117 170° South 425 489 39,900 -1,020 Descending Minneapolis Center
11:07AM 42.0492 -92.2844 170° South 433 498 38,900 -1,020 Descending Minneapolis Center
11:08AM 41.9025 -92.2458 169° South 448 516 37,800 -1,020 Descending Chicago Center
11:09AM 41.7822 -92.2214 171° South 444 511 36,800 -960 Descending Chicago Center
11:10AM 41.6608 -92.1942 170° South 447 514 35,900 -1,020 Descending Chicago Center
11:11AM 41.5147 -92.1608 170° South 447 514 34,800 -1,080 Descending Chicago Center
11:12AM 41.3925 -92.1339 171° South 449 517 33,800 -960 Descending Chicago Center
11:13AM 41.2697 -92.1083 171° South 450 518 32,900 -960 Descending Chicago Center
11:14AM 41.1494 -92.0800 170° South 454 522 31,900 -1,020 Descending Chicago Center
11:15AM 41.0281 -92.0544 171° South 446 513 30,900 -1,080 Descending Chicago Center
11:16AM 40.8833 -92.0211 170° South 443 510 29,700 -1,080 Descending Chicago Center
11:17AM 40.7683 -91.9739 163° South 441 507 28,700 -1,080 Descending Chicago Center
11:18AM 40.6644 -91.8933 150° Southeast 436 502 27,600 -900 Descending Chicago Center
11:19AM 40.5811 -91.8294 150° Southeast 435 501 27,000 -360 Descending Kansas City Center
11:20AM 40.4592 -91.7358 150° Southeast 428 493 27,000  Level Kansas City Center
11:21AM 40.3556 -91.6583 150° Southeast 428 493 27,000  Level Kansas City Center
11:22AM 40.2525 -91.5792 150° Southeast 429 494 27,000  Level Kansas City Center
11:23AM 40.1503 -91.5019 150° Southeast 427 491 27,000  Level Kansas City Center
11:24AM 40.0478 -91.4244 150° Southeast 428 493 27,000  Level Kansas City Center
11:25AM 39.9467 -91.3486 150° Southeast 423 487 27,000 -600 Level Kansas City Center
11:26AM 39.8239 -91.2564 150° Southeast 427 491 25,800 -1,680 Descending Kansas City Center
11:27AM 39.7331 -91.1881 150° Southeast 414 476 23,600 -2,280 Descending Kansas City Center
11:28AM 39.6414 -91.1108 147° Southeast 398 458 21,100 -2,640 Descending Kansas City Center
11:29AM 39.5317 -91.0208 148° Southeast 392 451 18,200 -2,640 Descending Kansas City Center
11:30AM 39.4433 -90.9503 148° Southeast 378 435 15,700 -2,340 Descending Kansas City Center
11:31AM 39.3597 -90.8825 148° Southeast 360 414 13,400 -2,220 Descending Kansas City Center
11:32AM 39.2789 -90.8308 154° Southeast 334 384 11,200 -1,680 Descending Kansas City Center
11:33AM 39.1983 -90.8047 166° South 305 351 10,000 -1,260 Descending Kansas City Center
11:34AM 39.1294 -90.7694 158° South 276 318 8,600 -1,680 Descending Kansas City Center
11:35AM 39.0578 -90.7050 145° Southeast 262 302 6,600 -1,740 Descending Kansas City Center
11:37AM 38.9981 -90.6517 145° Southeast 262 302 5,100 -1,020 Descending Kansas City Center
11:38AM 38.9406 -90.6000 145° Southeast 259 298 4,500 -540 Descending Kansas City Center
11:39AM 38.8900 -90.5542 145° Southeast 242 278 4,000 -600 Descending Kansas City Center
11:40AM 38.8394 -90.5089 145° Southeast 230 265 3,300 -960 Descending Kansas City Center
11:41AM 38.7950 -90.4644 142° Southeast 216 249 2,100 -1,020 Descending Kansas City Center
11:42AM 38.7714 -90.4139 121° Southeast 182 209 1,200 -780 Descending Kansas City Center
11:43AM 38.7506 -90.3714 122° Southeast 156 180 500 -720 Descending Kansas City Center